sensor_id;sensor_type;location;lat;lon;timestamp;pressure;altitude;pressure_sealevel;temperature;humidity
10587;BME280;5341;47.606;7.576;2022-12-16T00:02:21;97498.72;;;2.42;71.47
10587;BME280;5341;47.606;7.576;2022-12-16T00:04:49;97497.78;;;2.43;70.88
10587;BME280;5341;47.606;7.576;2022-12-16T00:07:19;97493.44;;;2.42;71.38
10587;BME280;5341;47.606;7.576;2022-12-16T00:09:51;97500.53;;;2.42;71.48
10587;BME280;5341;47.606;7.576;2022-12-16T00:12:20;97497.91;;;2.42;71.38
10587;BME280;5341;47.606;7.576;2022-12-16T00:14:51;97501.53;;;2.41;71.44
10587;BME280;5341;47.606;7.576;2022-12-16T00:17:25;97504.34;;;2.39;71.48
10587;BME280;5341;47.606;7.576;2022-12-16T00:19:54;97510.44;;;2.40;71.35
10587;BME280;5341;47.606;7.576;2022-12-16T00:22:23;97507.13;;;2.38;71.31
10587;BME280;5341;47.606;7.576;2022-12-16T00:24:57;97499.56;;;2.34;71.22
10587;BME280;5341;47.606;7.576;2022-12-16T00:27:25;97501.38;;;2.34;71.04
10587;BME280;5341;47.606;7.576;2022-12-16T00:29:54;97502.34;;;2.33;71.34
10587;BME280;5341;47.606;7.576;2022-12-16T00:32:22;97495.94;;;2.35;71.50
10587;BME280;5341;47.606;7.576;2022-12-16T00:34:53;97499.56;;;2.34;71.16
10587;BME280;5341;47.606;7.576;2022-12-16T00:37:23;97500.72;;;2.32;71.43
10587;BME280;5341;47.606;7.576;2022-12-16T00:39:53;97506.16;;;2.30;71.50
10587;BME280;5341;47.606;7.576;2022-12-16T00:42:25;97504.47;;;2.29;71.94
10587;BME280;5341;47.606;7.576;2022-12-16T00:45:00;97501.69;;;2.31;71.56
10587;BME280;5341;47.606;7.576;2022-12-16T00:47:28;97505.81;;;2.33;71.74
10587;BME280;5341;47.606;7.576;2022-12-16T00:50:00;97512.25;;;2.31;71.42
10587;BME280;5341;47.606;7.576;2022-12-16T00:52:29;97514.06;;;2.30;71.56
10587;BME280;5341;47.606;7.576;2022-12-16T00:54:58;97524.75;;;2.29;71.57
10587;BME280;5341;47.606;7.576;2022-12-16T00:57:28;97517.66;;;2.29;71.54
10587;BME280;5341;47.606;7.576;2022-12-16T00:59:58;97517.16;;;2.26;71.29
10587;BME280;5341;47.606;7.576;2022-12-16T01:02:30;97519.47;;;2.21;71.62
10587;BME280;5341;47.606;7.576;2022-12-16T01:05:08;97516.16;;;2.19;71.62
10587;BME280;5341;47.606;7.576;2022-12-16T01:07:39;97527.53;;;2.19;72.04
10587;BME280;5341;47.606;7.576;2022-12-16T01:10:10;97531.81;;;2.20;71.33
10587;BME280;5341;47.606;7.576;2022-12-16T01:12:39;97545.50;;;2.24;71.54
10587;BME280;5341;47.606;7.576;2022-12-16T01:15:10;97558.53;;;2.25;71.38
10587;BME280;5341;47.606;7.576;2022-12-16T01:17:44;97555.75;;;2.27;71.77
10587;BME280;5341;47.606;7.576;2022-12-16T01:20:15;97557.53;;;2.26;71.27
10587;BME280;5341;47.606;7.576;2022-12-16T01:22:45;97546.84;;;2.28;71.85
10587;BME280;5341;47.606;7.576;2022-12-16T01:25:15;97544.03;;;2.29;71.58
10587;BME280;5341;47.606;7.576;2022-12-16T01:27:45;97544.84;;;2.30;71.11
10587;BME280;5341;47.606;7.576;2022-12-16T01:30:13;97544.03;;;2.29;71.40
10587;BME280;5341;47.606;7.576;2022-12-16T01:32:41;97559.84;;;2.29;71.45
10587;BME280;5341;47.606;7.576;2022-12-16T01:35:10;97559.84;;;2.29;71.47
10587;BME280;5341;47.606;7.576;2022-12-16T01:37:39;97560.69;;;2.30;71.65
10587;BME280;5341;47.606;7.576;2022-12-16T01:40:08;97559.84;;;2.29;71.02
10587;BME280;5341;47.606;7.576;2022-12-16T01:42:43;97565.97;;;2.30;70.98
10587;BME280;5341;47.606;7.576;2022-12-16T01:45:36;97562.66;;;2.28;70.91
10587;BME280;5341;47.606;7.576;2022-12-16T01:48:12;97575.03;;;2.27;71.36
10587;BME280;5341;47.606;7.576;2022-12-16T01:50:43;97581.28;;;2.26;71.14
10587;BME280;5341;47.606;7.576;2022-12-16T01:53:12;97585.56;;;2.27;70.80
10587;BME280;5341;47.606;7.576;2022-12-16T01:55:43;97592.66;;;2.27;71.03
10587;BME280;5341;47.606;7.576;2022-12-16T01:58:16;97602.22;;;2.28;71.17
10587;BME280;5341;47.606;7.576;2022-12-16T02:00:48;97598.09;;;2.25;71.34
10587;BME280;5341;47.606;7.576;2022-12-16T02:03:17;97594.63;;;2.25;71.34
10587;BME280;5341;47.606;7.576;2022-12-16T02:05:47;97600.72;;;2.25;71.43
10587;BME280;5341;47.606;7.576;2022-12-16T02:08:17;97602.88;;;2.22;71.03
10587;BME280;5341;47.606;7.576;2022-12-16T02:10:55;97602.03;;;2.21;71.35
10587;BME280;5341;47.606;7.576;2022-12-16T02:13:34;97602.03;;;2.21;71.32
10587;BME280;5341;47.606;7.576;2022-12-16T02:16:14;97613.88;;;2.17;71.56
10587;BME280;5341;47.606;7.576;2022-12-16T02:18:51;97612.53;;;2.13;71.19
10587;BME280;5341;47.606;7.576;2022-12-16T02:21:38;97617.00;;;2.13;71.18
10587;BME280;5341;47.606;7.576;2022-12-16T02:24:46;97625.88;;;2.12;71.22
10587;BME280;5341;47.606;7.576;2022-12-16T02:27:42;97633.28;;;2.08;71.45
10587;BME280;5341;47.606;7.576;2022-12-16T02:33:43;97640.88;;;2.11;71.33
10587;BME280;5341;47.606;7.576;2022-12-16T02:36:23;97647.81;;;2.12;71.45
10587;BME280;5341;47.606;7.576;2022-12-16T02:38:58;97654.72;;;2.13;71.63
10587;BME280;5341;47.606;7.576;2022-12-16T02:41:33;97652.94;;;2.14;71.67
10587;BME280;5341;47.606;7.576;2022-12-16T02:44:05;97653.75;;;2.14;71.80
10587;BME280;5341;47.606;7.576;2022-12-16T02:46:39;97659.84;;;2.15;71.63
10587;BME280;5341;47.606;7.576;2022-12-16T02:52:28;97656.88;;;2.18;71.37
10587;BME280;5341;47.606;7.576;2022-12-16T02:54:59;97660.22;;;2.20;71.29
10587;BME280;5341;47.606;7.576;2022-12-16T03:00:39;97669.13;;;2.19;71.58
10587;BME280;5341;47.606;7.576;2022-12-16T03:03:14;97671.75;;;2.19;71.36
10587;BME280;5341;47.606;7.576;2022-12-16T03:05:46;97670.06;;;2.18;71.34
10587;BME280;5341;47.606;7.576;2022-12-16T03:08:20;97675.06;;;2.21;71.09
10587;BME280;5341;47.606;7.576;2022-12-16T03:10:53;97675.22;;;2.19;71.05
10587;BME280;5341;47.606;7.576;2022-12-16T03:13:26;97672.72;;;2.18;71.53
10587;BME280;5341;47.606;7.576;2022-12-16T03:16:00;97679.69;;;2.19;71.39
10587;BME280;5341;47.606;7.576;2022-12-16T03:18:29;97678.69;;;2.20;71.68
10587;BME280;5341;47.606;7.576;2022-12-16T03:21:02;97677.69;;;2.21;71.50
10587;BME280;5341;47.606;7.576;2022-12-16T03:23:35;97675.06;;;2.21;71.05
10587;BME280;5341;47.606;7.576;2022-12-16T03:26:06;97682.31;;;2.19;70.96
10587;BME280;5341;47.606;7.576;2022-12-16T03:28:43;97685.06;;;2.17;71.45
10587;BME280;5341;47.606;7.576;2022-12-16T03:31:22;97690.34;;;2.17;71.36
10587;BME280;5341;47.606;7.576;2022-12-16T03:33:58;97696.59;;;2.16;71.13
10587;BME280;5341;47.606;7.576;2022-12-16T03:36:33;97697.31;;;2.18;71.15
10587;BME280;5341;47.606;7.576;2022-12-16T03:39:05;97701.72;;;2.18;71.07
10587;BME280;5341;47.606;7.576;2022-12-16T03:41:34;97698.25;;;2.17;70.92
10587;BME280;5341;47.606;7.576;2022-12-16T03:44:03;97702.72;;;2.17;71.21
10587;BME280;5341;47.606;7.576;2022-12-16T03:46:31;97707.97;;;2.17;71.41
10587;BME280;5341;47.606;7.576;2022-12-16T03:49:00;97709.63;;;2.18;71.04
10587;BME280;5341;47.606;7.576;2022-12-16T03:51:28;97705.22;;;2.18;71.19
10587;BME280;5341;47.606;7.576;2022-12-16T03:53:57;97710.50;;;2.18;71.15
10587;BME280;5341;47.606;7.576;2022-12-16T03:56:25;97703.41;;;2.19;70.91
10587;BME280;5341;47.606;7.576;2022-12-16T03:58:53;97706.88;;;2.19;71.06
10587;BME280;5341;47.606;7.576;2022-12-16T04:01:21;97715.78;;;2.18;70.93
10587;BME280;5341;47.606;7.576;2022-12-16T04:03:49;97717.41;;;2.19;70.76
10587;BME280;5341;47.606;7.576;2022-12-16T04:06:17;97719.91;;;2.21;70.82
10587;BME280;5341;47.606;7.576;2022-12-16T04:08:45;97716.44;;;2.20;70.62
10587;BME280;5341;47.606;7.576;2022-12-16T04:11:15;97719.91;;;2.21;70.95
10587;BME280;5341;47.606;7.576;2022-12-16T04:13:59;97727.13;;;2.19;70.52
10587;BME280;5341;47.606;7.576;2022-12-16T04:16:46;97727.28;;;2.17;70.65
10587;BME280;5341;47.606;7.576;2022-12-16T04:19:34;97730.72;;;2.18;70.77
10587;BME280;5341;47.606;7.576;2022-12-16T04:22:22;97730.72;;;2.18;70.71
10587;BME280;5341;47.606;7.576;2022-12-16T04:25:12;97736.88;;;2.18;70.97
10587;BME280;5341;47.606;7.576;2022-12-16T04:27:42;97742.97;;;2.19;70.56
10587;BME280;5341;47.606;7.576;2022-12-16T04:30:12;97750.06;;;2.18;70.97
10587;BME280;5341;47.606;7.576;2022-12-16T04:32:49;97755.16;;;2.20;70.76
10587;BME280;5341;47.606;7.576;2022-12-16T04:35:35;97749.06;;;2.19;70.68
10587;BME280;5341;47.606;7.576;2022-12-16T04:38:20;97755.16;;;2.20;70.45
10587;BME280;5341;47.606;7.576;2022-12-16T04:41:05;97764.72;;;2.21;70.71
10587;BME280;5341;47.606;7.576;2022-12-16T04:43:52;97755.16;;;2.20;70.84
10587;BME280;5341;47.606;7.576;2022-12-16T04:46:37;97767.53;;;2.19;70.52
10587;BME280;5341;47.606;7.576;2022-12-16T04:49:23;97765.72;;;2.20;70.97
10587;BME280;5341;47.606;7.576;2022-12-16T04:52:08;97770.28;;;2.18;71.19
10587;BME280;5341;47.606;7.576;2022-12-16T04:54:53;97769.34;;;2.19;70.68
10587;BME280;5341;47.606;7.576;2022-12-16T04:57:38;97777.25;;;2.19;70.68
10587;BME280;5341;47.606;7.576;2022-12-16T05:00:26;97784.47;;;2.17;70.74
10587;BME280;5341;47.606;7.576;2022-12-16T05:03:11;97788.91;;;2.16;70.76
10587;BME280;5341;47.606;7.576;2022-12-16T05:05:56;97794.19;;;2.16;70.94
10587;BME280;5341;47.606;7.576;2022-12-16T05:08:40;97799.47;;;2.16;70.62
10587;BME280;5341;47.606;7.576;2022-12-16T05:11:25;97801.25;;;2.16;70.87
10587;BME280;5341;47.606;7.576;2022-12-16T05:14:10;97807.53;;;2.15;70.77
10587;BME280;5341;47.606;7.576;2022-12-16T05:16:56;97812.81;;;2.15;71.11
10587;BME280;5341;47.606;7.576;2022-12-16T05:19:41;97817.09;;;2.16;70.84
10587;BME280;5341;47.606;7.576;2022-12-16T05:22:27;97822.38;;;2.16;70.63
10587;BME280;5341;47.606;7.576;2022-12-16T05:25:21;97820.72;;;2.15;70.95
10587;BME280;5341;47.606;7.576;2022-12-16T05:28:06;97826.13;;;2.13;70.97
10587;BME280;5341;47.606;7.576;2022-12-16T05:30:51;97828.78;;;2.13;70.69
10587;BME280;5341;47.606;7.576;2022-12-16T05:33:37;97833.22;;;2.13;71.07
10587;BME280;5341;47.606;7.576;2022-12-16T05:36:22;97829.75;;;2.12;71.23
10587;BME280;5341;47.606;7.576;2022-12-16T05:39:08;97838.50;;;2.13;70.98
10587;BME280;5341;47.606;7.576;2022-12-16T05:41:55;97848.88;;;2.14;70.60
10587;BME280;5341;47.606;7.576;2022-12-16T05:44:39;97851.38;;;2.16;71.11
10587;BME280;5341;47.606;7.576;2022-12-16T05:47:25;97860.13;;;2.16;71.07
10587;BME280;5341;47.606;7.576;2022-12-16T05:50:13;97849.41;;;2.18;70.45
10587;BME280;5341;47.606;7.576;2022-12-16T05:53:07;97848.75;;;2.16;71.03
10587;BME280;5341;47.606;7.576;2022-12-16T05:55:54;97861.91;;;2.16;70.65
10587;BME280;5341;47.606;7.576;2022-12-16T05:58:45;97868.19;;;2.15;70.50
10587;BME280;5341;47.606;7.576;2022-12-16T06:01:30;97870.00;;;2.14;70.92
10587;BME280;5341;47.606;7.576;2022-12-16T06:04:16;97870.97;;;2.13;70.88
10587;BME280;5341;47.606;7.576;2022-12-16T06:07:02;97881.53;;;2.13;70.79
10587;BME280;5341;47.606;7.576;2022-12-16T06:09:47;97881.53;;;2.13;70.51
10587;BME280;5341;47.606;7.576;2022-12-16T06:12:39;97881.53;;;2.13;70.92
10587;BME280;5341;47.606;7.576;2022-12-16T06:15:27;97882.50;;;2.12;70.73
10587;BME280;5341;47.606;7.576;2022-12-16T06:18:13;97898.31;;;2.12;70.86
10587;BME280;5341;47.606;7.576;2022-12-16T06:20:58;97898.16;;;2.14;70.58
10587;BME280;5341;47.606;7.576;2022-12-16T06:23:46;97893.06;;;2.12;70.74
10587;BME280;5341;47.606;7.576;2022-12-16T06:26:32;97899.31;;;2.11;70.65
10587;BME280;5341;47.606;7.576;2022-12-16T06:29:17;97901.94;;;2.11;70.42
10587;BME280;5341;47.606;7.576;2022-12-16T06:32:07;97910.69;;;2.12;70.99
10587;BME280;5341;47.606;7.576;2022-12-16T06:34:53;97920.25;;;2.13;70.84
10587;BME280;5341;47.606;7.576;2022-12-16T06:37:39;97928.16;;;2.13;70.77
10587;BME280;5341;47.606;7.576;2022-12-16T06:40:27;97922.88;;;2.13;70.71
10587;BME280;5341;47.606;7.576;2022-12-16T06:43:27;97929.97;;;2.12;70.43
10587;BME280;5341;47.606;7.576;2022-12-16T06:46:12;97933.59;;;2.11;71.04
10587;BME280;5341;47.606;7.576;2022-12-16T06:48:58;97940.53;;;2.12;70.56
10587;BME280;5341;47.606;7.576;2022-12-16T06:51:42;97946.63;;;2.13;70.82
10587;BME280;5341;47.606;7.576;2022-12-16T06:54:27;97949.25;;;2.13;70.80
10587;BME280;5341;47.606;7.576;2022-12-16T06:57:14;97960.78;;;2.12;70.59
10587;BME280;5341;47.606;7.576;2022-12-16T06:59:58;97959.66;;;2.14;70.98
10587;BME280;5341;47.606;7.576;2022-12-16T07:02:44;97970.34;;;2.13;70.88
10587;BME280;5341;47.606;7.576;2022-12-16T07:05:30;97975.63;;;2.13;70.94
10587;BME280;5341;47.606;7.576;2022-12-16T07:08:15;97981.72;;;2.13;70.95
10587;BME280;5341;47.606;7.576;2022-12-16T07:11:00;97982.56;;;2.14;70.51
10587;BME280;5341;47.606;7.576;2022-12-16T07:13:47;97993.09;;;2.14;70.34
10587;BME280;5341;47.606;7.576;2022-12-16T07:16:32;97996.56;;;2.14;70.72
10587;BME280;5341;47.606;7.576;2022-12-16T07:19:18;97998.22;;;2.15;70.79
10587;BME280;5341;47.606;7.576;2022-12-16T07:22:05;98001.84;;;2.14;70.64
10587;BME280;5341;47.606;7.576;2022-12-16T07:24:51;98016.69;;;2.15;70.49
10587;BME280;5341;47.606;7.576;2022-12-16T07:27:36;98004.47;;;2.14;70.46
10587;BME280;5341;47.606;7.576;2022-12-16T07:30:27;98013.06;;;2.16;70.46
10587;BME280;5341;47.606;7.576;2022-12-16T07:33:12;98025.28;;;2.17;70.77
10587;BME280;5341;47.606;7.576;2022-12-16T07:35:57;98029.72;;;2.17;70.68
10587;BME280;5341;47.606;7.576;2022-12-16T07:38:42;98025.28;;;2.17;70.39
10587;BME280;5341;47.606;7.576;2022-12-16T07:41:26;98034.16;;;2.16;70.65
10587;BME280;5341;47.606;7.576;2022-12-16T07:44:11;98039.44;;;2.16;70.80
10587;BME280;5341;47.606;7.576;2022-12-16T07:46:58;98040.28;;;2.17;70.39
10587;BME280;5341;47.606;7.576;2022-12-16T07:49:43;98051.66;;;2.17;70.54
10587;BME280;5341;47.606;7.576;2022-12-16T07:52:29;98059.72;;;2.16;70.63
10587;BME280;5341;47.606;7.576;2022-12-16T07:55:14;98056.94;;;2.17;70.29
10587;BME280;5341;47.606;7.576;2022-12-16T07:58:00;98061.38;;;2.17;70.28
10587;BME280;5341;47.606;7.576;2022-12-16T08:00:46;98067.47;;;2.17;70.21
10587;BME280;5341;47.606;7.576;2022-12-16T08:03:33;98073.59;;;2.18;70.45
10587;BME280;5341;47.606;7.576;2022-12-16T08:06:18;98080.66;;;2.17;70.59
10587;BME280;5341;47.606;7.576;2022-12-16T08:09:10;98082.47;;;2.17;70.58
10587;BME280;5341;47.606;7.576;2022-12-16T08:11:56;98079.84;;;2.17;70.64
10587;BME280;5341;47.606;7.576;2022-12-16T08:14:45;98086.78;;;2.18;70.60
10587;BME280;5341;47.606;7.576;2022-12-16T08:17:30;98096.50;;;2.17;70.59
10587;BME280;5341;47.606;7.576;2022-12-16T08:20:17;98096.50;;;2.17;70.54
10587;BME280;5341;47.606;7.576;2022-12-16T08:23:02;98105.22;;;2.18;70.31
10587;BME280;5341;47.606;7.576;2022-12-16T08:25:47;98107.88;;;2.18;70.61
10587;BME280;5341;47.606;7.576;2022-12-16T08:28:33;98107.88;;;2.18;70.47
10587;BME280;5341;47.606;7.576;2022-12-16T08:31:18;98114.00;;;2.18;70.67
10587;BME280;5341;47.606;7.576;2022-12-16T08:34:05;98114.69;;;2.20;70.47
10587;BME280;5341;47.606;7.576;2022-12-16T08:36:51;98120.78;;;2.21;70.42
10587;BME280;5341;47.606;7.576;2022-12-16T08:39:36;98133.00;;;2.22;70.75
10587;BME280;5341;47.606;7.576;2022-12-16T08:42:21;98132.16;;;2.21;70.28
10587;BME280;5341;47.606;7.576;2022-12-16T08:45:06;98143.56;;;2.22;70.50
10587;BME280;5341;47.606;7.576;2022-12-16T08:47:52;98147.00;;;2.22;70.24
10587;BME280;5341;47.606;7.576;2022-12-16T08:50:36;98142.56;;;2.23;70.04
10587;BME280;5341;47.606;7.576;2022-12-16T08:53:23;98145.34;;;2.21;70.46
10587;BME280;5341;47.606;7.576;2022-12-16T08:56:08;98152.28;;;2.22;70.63
10587;BME280;5341;47.606;7.576;2022-12-16T08:58:54;98157.56;;;2.22;70.59
10587;BME280;5341;47.606;7.576;2022-12-16T09:01:40;98161.03;;;2.23;70.58
10587;BME280;5341;47.606;7.576;2022-12-16T09:04:32;98162.69;;;2.24;70.30
10587;BME280;5341;47.606;7.576;2022-12-16T09:07:17;98166.31;;;2.23;70.19
10587;BME280;5341;47.606;7.576;2022-12-16T09:10:10;98167.97;;;2.24;70.42
10587;BME280;5341;47.606;7.576;2022-12-16T09:13:07;98175.75;;;2.25;70.40
10587;BME280;5341;47.606;7.576;2022-12-16T09:15:53;98183.66;;;2.25;70.20
10587;BME280;5341;47.606;7.576;2022-12-16T09:18:43;98182.81;;;2.25;70.16
10587;BME280;5341;47.606;7.576;2022-12-16T09:21:35;98179.50;;;2.23;70.26
10587;BME280;5341;47.606;7.576;2022-12-16T09:24:21;98183.94;;;2.22;70.66
10587;BME280;5341;47.606;7.576;2022-12-16T09:27:07;98185.75;;;2.22;70.65
10587;BME280;5341;47.606;7.576;2022-12-16T09:29:52;98190.19;;;2.21;70.25
10587;BME280;5341;47.606;7.576;2022-12-16T09:32:46;98197.97;;;2.23;70.46
10587;BME280;5341;47.606;7.576;2022-12-16T09:35:35;98190.19;;;2.21;70.25
10587;BME280;5341;47.606;7.576;2022-12-16T09:38:21;98200.59;;;2.23;70.44
10587;BME280;5341;47.606;7.576;2022-12-16T09:41:34;98206.56;;;2.25;70.83
10587;BME280;5341;47.606;7.576;2022-12-16T09:44:32;98222.53;;;2.23;70.42
10587;BME280;5341;47.606;7.576;2022-12-16T09:47:24;98230.31;;;2.25;70.43
10587;BME280;5341;47.606;7.576;2022-12-16T09:50:19;98224.03;;;2.26;70.61
10587;BME280;5341;47.606;7.576;2022-12-16T09:53:09;98230.97;;;2.27;70.58
10587;BME280;5341;47.606;7.576;2022-12-16T09:55:55;98228.19;;;2.28;70.50
10587;BME280;5341;47.606;7.576;2022-12-16T09:58:45;98232.38;;;2.31;70.46
10587;BME280;5341;47.606;7.576;2022-12-16T10:01:50;98237.66;;;2.31;70.53
10587;BME280;5341;47.606;7.576;2022-12-16T10:04:39;98233.22;;;2.31;70.48
10587;BME280;5341;47.606;7.576;2022-12-16T10:07:28;98230.56;;;2.31;70.33
10587;BME280;5341;47.606;7.576;2022-12-16T10:13:36;98240.97;;;2.33;70.54
10587;BME280;5341;47.606;7.576;2022-12-16T10:16:40;98240.16;;;2.32;70.45
10587;BME280;5341;47.606;7.576;2022-12-16T10:19:35;98241.81;;;2.33;70.58
10587;BME280;5341;47.606;7.576;2022-12-16T10:22:29;98242.63;;;2.34;70.19
10587;BME280;5341;47.606;7.576;2022-12-16T10:25:21;98238.34;;;2.33;70.54
10587;BME280;5341;47.606;7.576;2022-12-16T10:28:14;98238.50;;;2.31;70.08
10587;BME280;5341;47.606;7.576;2022-12-16T10:30:56;98235.97;;;2.30;70.11
10587;BME280;5341;47.606;7.576;2022-12-16T10:33:44;98234.19;;;2.30;70.72
10587;BME280;5341;47.606;7.576;2022-12-16T10:36:31;98236.69;;;2.32;70.28
10587;BME280;5341;47.606;7.576;2022-12-16T10:39:24;98231.41;;;2.32;70.53
10587;BME280;5341;47.606;7.576;2022-12-16T10:42:26;98235.72;;;2.33;70.77
10587;BME280;5341;47.606;7.576;2022-12-16T10:45:17;98242.63;;;2.34;70.51
10587;BME280;5341;47.606;7.576;2022-12-16T10:48:04;98239.19;;;2.33;70.26
10587;BME280;5341;47.606;7.576;2022-12-16T10:50:50;98242.63;;;2.34;70.34
10587;BME280;5341;47.606;7.576;2022-12-16T10:53:41;98236.53;;;2.33;70.58
10587;BME280;5341;47.606;7.576;2022-12-16T10:56:40;98230.28;;;2.34;70.66
10587;BME280;5341;47.606;7.576;2022-12-16T10:59:34;98230.44;;;2.33;70.60
10587;BME280;5341;47.606;7.576;2022-12-16T11:02:21;98236.53;;;2.33;70.48
10587;BME280;5341;47.606;7.576;2022-12-16T11:05:28;98230.28;;;2.34;70.51
10587;BME280;5341;47.606;7.576;2022-12-16T11:08:26;98229.44;;;2.34;70.46
10587;BME280;5341;47.606;7.576;2022-12-16T11:11:13;98227.78;;;2.33;70.47
10587;BME280;5341;47.606;7.576;2022-12-16T11:14:20;98233.91;;;2.33;70.35
10587;BME280;5341;47.606;7.576;2022-12-16T11:17:14;98237.38;;;2.34;70.28
10587;BME280;5341;47.606;7.576;2022-12-16T11:20:11;98239.03;;;2.35;70.23
10587;BME280;5341;47.606;7.576;2022-12-16T11:23:17;98237.50;;;2.32;70.06
10587;BME280;5341;47.606;7.576;2022-12-16T11:26:07;98243.88;;;2.30;70.24
10587;BME280;5341;47.606;7.576;2022-12-16T11:29:08;98243.75;;;2.31;70.31
10587;BME280;5341;47.606;7.576;2022-12-16T11:31:59;98249.03;;;2.31;70.59
10587;BME280;5341;47.606;7.576;2022-12-16T11:34:51;98248.06;;;2.32;70.61
10587;BME280;5341;47.606;7.576;2022-12-16T11:37:40;98240.97;;;2.33;70.12
10587;BME280;5341;47.606;7.576;2022-12-16T11:40:27;98255.69;;;2.35;70.67
10587;BME280;5341;47.606;7.576;2022-12-16T11:43:17;98253.59;;;2.39;70.20
10587;BME280;5341;47.606;7.576;2022-12-16T11:46:07;98256.91;;;2.41;70.70
10587;BME280;5341;47.606;7.576;2022-12-16T11:48:57;98257.75;;;2.42;70.49
10587;BME280;5341;47.606;7.576;2022-12-16T11:51:49;98253.28;;;2.42;70.24
10587;BME280;5341;47.606;7.576;2022-12-16T11:54:51;98258.44;;;2.44;70.13
10587;BME280;5341;47.606;7.576;2022-12-16T11:57:44;98263.72;;;2.44;70.34
10587;BME280;5341;47.606;7.576;2022-12-16T12:00:32;98259.28;;;2.44;70.15
10587;BME280;5341;47.606;7.576;2022-12-16T12:03:22;98264.72;;;2.43;70.15
10587;BME280;5341;47.606;7.576;2022-12-16T12:06:17;98266.38;;;2.44;70.05
10587;BME280;5341;47.606;7.576;2022-12-16T12:09:11;98267.34;;;2.43;70.48
10587;BME280;5341;47.606;7.576;2022-12-16T12:12:11;98270.09;;;2.41;70.30
10587;BME280;5341;47.606;7.576;2022-12-16T12:15:03;98276.22;;;2.42;70.18
10587;BME280;5341;47.606;7.576;2022-12-16T12:17:59;98279.00;;;2.40;69.96
10587;BME280;5341;47.606;7.576;2022-12-16T12:20:55;98277.03;;;2.42;70.39
10587;BME280;5341;47.606;7.576;2022-12-16T12:23:50;98284.84;;;2.44;70.25
10587;BME280;5341;47.606;7.576;2022-12-16T12:26:43;98276.09;;;2.43;70.54
10587;BME280;5341;47.606;7.576;2022-12-16T12:29:37;98284.00;;;2.43;69.91
10587;BME280;5341;47.606;7.576;2022-12-16T12:32:36;98284.13;;;2.42;70.19
10587;BME280;5341;47.606;7.576;2022-12-16T12:35:41;98287.59;;;2.42;70.23
10587;BME280;5341;47.606;7.576;2022-12-16T12:38:34;98296.47;;;2.41;70.41
10587;BME280;5341;47.606;7.576;2022-12-16T12:41:26;98295.66;;;2.41;69.72
10587;BME280;5341;47.606;7.576;2022-12-16T12:44:19;98300.25;;;2.39;70.25
10587;BME280;5341;47.606;7.576;2022-12-16T12:47:07;98307.34;;;2.38;69.98
10587;BME280;5341;47.606;7.576;2022-12-16T12:49:58;98309.28;;;2.36;70.24
10587;BME280;5341;47.606;7.576;2022-12-16T12:53:09;98310.13;;;2.37;70.28
10587;BME280;5341;47.606;7.576;2022-12-16T12:56:07;98314.41;;;2.38;70.14
10587;BME280;5341;47.606;7.576;2022-12-16T12:59:00;98319.00;;;2.35;69.92
10587;BME280;5341;47.606;7.576;2022-12-16T13:01:47;98329.56;;;2.35;70.27
10587;BME280;5341;47.606;7.576;2022-12-16T13:04:35;98326.09;;;2.35;69.85
10587;BME280;5341;47.606;7.576;2022-12-16T13:07:26;98329.56;;;2.35;69.70
10587;BME280;5341;47.606;7.576;2022-12-16T13:10:30;98331.38;;;2.35;69.85
10587;BME280;5341;47.606;7.576;2022-12-16T13:13:37;98329.41;;;2.37;69.95
10587;BME280;5341;47.606;7.576;2022-12-16T13:20:00;98336.50;;;2.37;70.32
10587;BME280;5341;47.606;7.576;2022-12-16T13:22:51;98344.41;;;2.37;69.54
10587;BME280;5341;47.606;7.576;2022-12-16T13:25:41;98341.78;;;2.37;69.95
10587;BME280;5341;47.606;7.576;2022-12-16T13:28:32;98336.34;;;2.38;70.19
10587;BME280;5341;47.606;7.576;2022-12-16T13:31:22;98337.19;;;2.39;70.12
10587;BME280;5341;47.606;7.576;2022-12-16T13:34:21;98348.56;;;2.39;70.37
10587;BME280;5341;47.606;7.576;2022-12-16T13:37:19;98347.59;;;2.40;70.06
10587;BME280;5341;47.606;7.576;2022-12-16T13:40:12;98352.03;;;2.40;70.13
10587;BME280;5341;47.606;7.576;2022-12-16T13:43:02;98360.78;;;2.40;69.62
10587;BME280;5341;47.606;7.576;2022-12-16T13:46:15;98359.81;;;2.41;69.74
10587;BME280;5341;47.606;7.576;2022-12-16T13:52:20;98358.00;;;2.42;69.94
10587;BME280;5341;47.606;7.576;2022-12-16T13:55:12;98371.91;;;2.44;69.81
10587;BME280;5341;47.606;7.576;2022-12-16T13:58:05;98378.03;;;2.44;69.56
10587;BME280;5341;47.606;7.576;2022-12-16T14:00:58;98379.84;;;2.44;69.97
10587;BME280;5341;47.606;7.576;2022-12-16T14:03:49;98384.28;;;2.43;70.01
10587;BME280;5341;47.606;7.576;2022-12-16T14:06:38;98385.22;;;2.42;70.00
10587;BME280;5341;47.606;7.576;2022-12-16T14:09:33;98390.50;;;2.42;69.49
10587;BME280;5341;47.606;7.576;2022-12-16T14:12:39;98388.84;;;2.41;69.91
10587;BME280;5341;47.606;7.576;2022-12-16T14:15:32;98401.19;;;2.41;70.16
10587;BME280;5341;47.606;7.576;2022-12-16T14:18:28;98409.13;;;2.41;69.81
10587;BME280;5341;47.606;7.576;2022-12-16T14:21:21;98413.41;;;2.42;69.97
10587;BME280;5341;47.606;7.576;2022-12-16T14:24:17;98407.44;;;2.40;70.01
10587;BME280;5341;47.606;7.576;2022-12-16T14:27:12;98414.38;;;2.41;69.96
10587;BME280;5341;47.606;7.576;2022-12-16T14:29:58;98416.19;;;2.40;69.83
10587;BME280;5341;47.606;7.576;2022-12-16T14:32:47;98416.19;;;2.40;69.91
10587;BME280;5341;47.606;7.576;2022-12-16T14:35:33;98429.41;;;2.40;69.83
10587;BME280;5341;47.606;7.576;2022-12-16T14:38:23;98437.44;;;2.39;69.73
10587;BME280;5341;47.606;7.576;2022-12-16T14:41:13;98437.44;;;2.39;69.71
10587;BME280;5341;47.606;7.576;2022-12-16T14:44:02;98447.31;;;2.37;69.93
10587;BME280;5341;47.606;7.576;2022-12-16T14:46:50;98445.66;;;2.35;69.39
10587;BME280;5341;47.606;7.576;2022-12-16T14:49:48;98452.72;;;2.35;69.78
10587;BME280;5341;47.606;7.576;2022-12-16T14:52:36;98459.13;;;2.32;69.78
10587;BME280;5341;47.606;7.576;2022-12-16T14:55:27;98459.81;;;2.34;69.54
10587;BME280;5341;47.606;7.576;2022-12-16T14:58:14;98463.28;;;2.35;69.79
10587;BME280;5341;47.606;7.576;2022-12-16T15:01:02;98466.91;;;2.34;69.63
10587;BME280;5341;47.606;7.576;2022-12-16T15:03:49;98472.19;;;2.34;69.46
10587;BME280;5341;47.606;7.576;2022-12-16T15:06:40;98473.97;;;2.33;69.47
10587;BME280;5341;47.606;7.576;2022-12-16T15:09:27;98478.28;;;2.34;69.78
10587;BME280;5341;47.606;7.576;2022-12-16T15:12:15;98485.22;;;2.35;70.17
10587;BME280;5341;47.606;7.576;2022-12-16T15:15:05;98482.72;;;2.34;69.93
10587;BME280;5341;47.606;7.576;2022-12-16T15:17:54;98487.19;;;2.33;69.66